KCID/CID METAR and TAF weather

Enter ICAO airport designator
Station Type Date Time Source
KCID METAR 2020/07/05 03:52 UTC NOAA

KCID 050352Z 10004KT 6SM BR CLR 23/22 A3000 RMK AO2 SLP151 T02280217


Station Type Date Time Source
KCID Decoded METAR 2020/07/05 03:52 UTC NOAA

CEDAR RAPIDS AIRPORT, IA, United States (KCID) 41-53N 91-43W
Jul 04, 2020 - 11:52 PM EDT / 2020.07.05 0352 UTC
Wind: from the E (100 degrees) at 5 MPH (4 KT):0
Visibility: 6 mile(s):0
Sky conditions: clear
Weather: mist
Temperature: 73.0 F (22.8 C)
Dew Point: 71.1 F (21.7 C)
Relative Humidity: 93%
Pressure (altimeter): 30 in. Hg (1015 hPa)
ob: KCID 050352Z 10004KT 6SM BR CLR 23/22 A3000 RMK AO2 SLP151 T02280217
cycle: 4

Station Type Date Time Source
KCID TAF 2020/07/04 18:22 UTC NOAA

TAF KCID 041720Z 0418/0518 VRB04KT P6SM SCT040
FM042300 VRB03KT P6SM FEW120

Example: see airport list